This is the latest recevied weather packets stored in our database for station/object KK7ISX. If no packets are shown the sender has not sent any weather packets the latest 1 day(s).
| Time | Temp. | Humidity | Pressure | Rain* | Wind** | Luminosity | Snow |
|---|---|---|---|---|---|---|---|
| 1778093354 | 20° C | 31% | 1019.6 hPa | 0 mm | - | 762 W/m² | - |
| 1778092443 | 20° C | 31% | 1019.6 hPa | 0 mm | - | 762 W/m² | - |
| 1778091233 | 18.89° C | 31% | 1019.9 hPa | 0 mm | - | 752 W/m² | - |
| 1778090930 | 18.89° C | 32% | 1020 hPa | 0 mm | - | 748 W/m² | - |
| 1778088802 | 17.78° C | 32% | 1019.9 hPa | 0 mm | - | 693 W/m² | - |
| 1778088499 | 17.78° C | 33% | 1020.1 hPa | 0 mm | - | 682 W/m² | - |
| 1778087893 | 17.22° C | 32% | 1020.1 hPa | 0 mm | - | 660 W/m² | - |
| 1778087590 | 16.67° C | 33% | 1020.2 hPa | 0 mm | - | 648 W/m² | - |
| 1778087288 | 17.22° C | 32% | 1020.3 hPa | 0 mm | - | 635 W/m² | - |
| 1778085773 | 16.11° C | 33% | 1020 hPa | 0 mm | - | 568 W/m² | - |
| 1778085470 | 16.67° C | 34% | 1020.2 hPa | 0 mm | - | 553 W/m² | - |
| 1778084861 | 15.56° C | 33% | 1020.2 hPa | 0 mm | - | 526 W/m² | - |
| 1778083347 | 14.44° C | 36% | 1020 hPa | 0 mm | - | 446 W/m² | - |
| 1778082742 | 14.44° C | 35% | 1020.1 hPa | 0 mm | - | 411 W/m² | - |
| 1778078580 | 12.22° C | 43% | 1020.1 hPa | 0 mm | - | 180 W/m² | - |
| 1778078278 | 11.67° C | 43% | 1020.3 hPa | 0 mm | - | 185 W/m² | - |
| 1778077371 | 11.11° C | 45% | 1019.9 hPa | 0 mm | - | 48 W/m² | - |
| 1778077069 | 11.11° C | 46% | 1020 hPa | 0 mm | - | 137 W/m² | - |
| 1778076767 | 11.11° C | 47% | 1019.8 hPa | 0 mm | - | 53 W/m² | - |
| 1778076161 | 10.56° C | 48% | 1019.9 hPa | 0 mm | - | 115 W/m² | - |
| 1778075858 | 10.56° C | 49% | 1020 hPa | 0 mm | - | 103 W/m² | - |
| 1778075554 | 10° C | 49% | 1019.8 hPa | 0 mm | - | 65 W/m² | - |
| 1778073129 | 8.89° C | 50% | 1019.4 hPa | 0 mm | - | 32 W/m² | - |
| 1778072826 | 8.89° C | 50% | 1019 hPa | 0 mm | - | 27 W/m² | - |
| 1778071919 | 8.33° C | 51% | 1019.2 hPa | 0 mm | - | 15 W/m² | - |
* Rain latest hour (hover to see other rain measurements)
** Current wind speed in m/s (hover to see current wind gust speed)